createdAt,value
2022-10-03T00:00:09.206Z,100281.84
2022-10-03T00:05:30.375Z,100277.03
2022-10-03T00:10:35.839Z,100270.31
2022-10-03T00:15:36.294Z,100275.69
2022-10-03T00:20:40.267Z,100277.94
2022-10-03T00:25:40.772Z,100275.44
2022-10-03T00:30:54.046Z,100283.56
2022-10-03T00:36:19.488Z,100288.16
2022-10-03T00:41:21.797Z,100296.22
2022-10-03T00:46:51.867Z,100295.97
2022-10-03T00:51:52.205Z,100290.31
2022-10-03T00:57:09.133Z,100299.25
2022-10-03T01:02:25.331Z,100299.06
2022-10-03T01:07:44.461Z,100306.16
2022-10-03T01:12:58.098Z,100309.50
2022-10-03T01:18:01.834Z,100313.66
2022-10-03T01:22:59.003Z,100313.66
2022-10-03T01:28:39.753Z,100310.28
2022-10-03T01:33:38.033Z,100315.69
2022-10-03T01:38:48.293Z,100325.69
2022-10-03T01:43:50.448Z,100319.66
2022-10-03T01:49:00.709Z,100329.63
2022-10-03T01:54:01.396Z,100332.31
2022-10-03T01:59:08.719Z,100328.16
2022-10-03T02:04:23.122Z,100319.19
2022-10-03T02:09:25.361Z,100312.94
2022-10-03T02:14:48.608Z,100324.59
2022-10-03T02:19:52.260Z,100295.88
2022-10-03T02:24:56.146Z,100305.00
2022-10-03T02:30:12.656Z,100310.41
2022-10-03T02:35:22.125Z,100304.50
2022-10-03T02:40:26.297Z,100296.50
2022-10-03T02:45:20.736Z,100291.69
2022-10-03T02:50:21.441Z,100270.63
2022-10-03T02:55:36.570Z,100286.59
2022-10-03T03:01:19.525Z,100275.31
2022-10-03T03:06:35.958Z,100275.06
2022-10-03T03:12:16.616Z,100266.69
2022-10-03T03:17:17.331Z,100276.00
2022-10-03T03:22:35.413Z,100277.03
2022-10-03T03:27:43.333Z,100275.19
2022-10-03T03:32:46.066Z,100272.00
2022-10-03T03:37:55.534Z,100263.91
2022-10-03T03:43:00.367Z,100268.91
2022-10-03T03:48:15.476Z,100270.59
2022-10-03T03:53:25.255Z,100266.03
2022-10-03T03:58:35.454Z,100271.44
2022-10-03T04:03:58.422Z,100267.13
2022-10-03T04:09:35.036Z,100260.13
2022-10-03T04:14:52.221Z,100260.19
2022-10-03T04:20:05.972Z,100252.13
2022-10-03T04:25:18.200Z,100258.00
2022-10-03T04:30:35.792Z,100252.81
2022-10-03T04:35:42.198Z,100262.03
2022-10-03T04:40:43.398Z,100263.31
2022-10-03T04:45:41.241Z,100259.00
2022-10-03T04:50:51.291Z,100236.94
2022-10-03T04:55:48.884Z,100239.91
2022-10-03T05:01:06.615Z,100241.56
2022-10-03T05:06:06.216Z,100247.81
2022-10-03T05:11:35.332Z,100247.63
2022-10-03T05:16:38.347Z,100240.34
2022-10-03T05:21:47.398Z,100246.78
2022-10-03T05:27:23.982Z,100235.97
2022-10-03T05:32:31.621Z,100226.44
2022-10-03T05:37:35.677Z,100233.28
2022-10-03T05:42:36.849Z,100227.47
2022-10-03T05:47:45.804Z,100217.13
2022-10-03T05:52:43.605Z,100212.31
2022-10-03T05:57:35.215Z,100208.41
2022-10-03T06:02:32.923Z,100203.59
2022-10-03T06:07:52.604Z,100202.38
2022-10-03T06:12:54.377Z,100214.03
2022-10-03T06:18:04.526Z,100199.47
2022-10-03T06:23:24.399Z,100208.22
2022-10-03T06:28:28.509Z,100206.75
2022-10-03T06:33:53.236Z,100195.69
2022-10-03T06:39:22.725Z,100197.38
2022-10-03T06:44:45.137Z,100192.78
2022-10-03T06:50:11.374Z,100201.94
2022-10-03T06:55:12.233Z,100204.00
2022-10-03T07:00:09.794Z,100209.63
2022-10-03T07:05:16.490Z,100209.63
2022-10-03T07:10:30.089Z,100206.31
2022-10-03T07:16:06.245Z,100207.41
2022-10-03T07:21:01.429Z,100202.00
2022-10-03T07:26:26.975Z,100201.84
2022-10-03T07:31:21.724Z,100206.06
2022-10-03T07:36:50.366Z,100201.09
2022-10-03T07:42:04.109Z,100202.81
2022-10-03T07:47:41.941Z,100197.47
2022-10-03T07:53:08.045Z,100195.69
2022-10-03T07:58:08.617Z,100196.34
2022-10-03T08:03:24.935Z,100193.00
2022-10-03T08:08:51.663Z,100200.22
2022-10-03T08:14:01.919Z,100193.81
2022-10-03T08:19:22.785Z,100192.75
2022-10-03T08:24:22.904Z,100200.22
2022-10-03T08:29:29.433Z,100209.03
2022-10-03T08:34:33.702Z,100207.19
2022-10-03T08:39:42.060Z,100202.72
2022-10-03T08:44:36.389Z,100184.78
2022-10-03T08:49:36.842Z,100196.69
2022-10-03T08:54:51.535Z,100196.22
2022-10-03T09:00:04.741Z,100193.00
2022-10-03T09:05:15.292Z,100193.69
2022-10-03T09:10:42.278Z,100193.69
2022-10-03T09:16:10.600Z,100179.34
2022-10-03T09:21:17.886Z,100189.28
2022-10-03T09:26:24.614Z,100191.50
2022-10-03T09:31:35.247Z,100184.22
2022-10-03T09:36:44.872Z,100183.06
2022-10-03T09:41:55.185Z,100176.91
2022-10-03T09:47:12.608Z,100167.22
2022-10-03T09:52:30.035Z,100163.81
2022-10-03T09:57:42.207Z,100159.03
2022-10-03T10:02:49.126Z,100154.34
2022-10-03T10:08:06.033Z,100146.63
2022-10-03T10:13:19.611Z,100139.97
2022-10-03T10:18:17.265Z,100136.22
2022-10-03T10:23:28.744Z,100135.03
2022-10-03T10:28:58.625Z,100126.78
2022-10-03T10:34:17.741Z,100137.47
2022-10-03T10:39:36.589Z,100121.59
2022-10-03T10:44:46.972Z,100125.63
2022-10-03T10:50:00.286Z,100121.50
2022-10-03T10:55:03.727Z,100127.34
2022-10-03T11:00:10.712Z,100104.09
2022-10-03T11:05:38.262Z,100095.41
2022-10-03T11:10:52.495Z,100089.84
2022-10-03T11:15:53.150Z,100084.38
2022-10-03T11:21:04.488Z,100079.81
2022-10-03T11:26:21.095Z,100074.50
2022-10-03T11:31:34.422Z,100067.03
2022-10-03T11:36:59.977Z,100040.53
2022-10-03T11:42:02.489Z,100036.13
2022-10-03T11:47:00.098Z,100023.94
2022-10-03T11:52:06.786Z,100027.91
2022-10-03T11:57:43.971Z,100015.06
2022-10-03T12:03:03.429Z,100001.44
2022-10-03T12:08:47.748Z,99997.63
2022-10-03T12:14:11.751Z,99994.66
2022-10-03T12:19:20.934Z,99988.75
2022-10-03T12:24:42.901Z,99991.50
2022-10-03T12:29:39.138Z,99989.56
2022-10-03T12:34:40.179Z,100001.03
2022-10-03T12:39:58.686Z,99995.00
2022-10-03T12:45:02.286Z,99985.34
2022-10-03T12:50:15.430Z,99977.84
2022-10-03T12:55:38.497Z,99955.25
2022-10-03T13:00:56.047Z,99940.94
2022-10-03T13:06:02.877Z,99943.00
2022-10-03T13:11:08.969Z,99940.69
2022-10-03T13:16:08.846Z,99948.88
2022-10-03T13:21:26.661Z,99935.31
2022-10-03T13:26:47.051Z,99931.03
2022-10-03T13:31:57.280Z,99913.13
2022-10-03T13:37:05.329Z,99916.44
2022-10-03T13:42:13.826Z,99904.72
2022-10-03T13:47:43.541Z,99904.22
2022-10-03T13:53:01.407Z,99896.88
2022-10-03T13:58:13.143Z,99896.53
2022-10-03T14:03:15.900Z,99896.50
2022-10-03T14:08:17.446Z,99899.41
2022-10-03T14:13:21.744Z,99896.91
2022-10-03T14:18:44.975Z,99890.22
2022-10-03T14:23:50.702Z,99892.34
2022-10-03T14:29:05.634Z,99897.16
2022-10-03T14:34:07.841Z,99901.72
2022-10-03T14:39:38.158Z,99881.13
2022-10-03T14:44:38.734Z,99887.13
2022-10-03T14:54:45.274Z,99869.56
2022-10-03T14:59:37.239Z,99862.69
2022-10-03T15:04:35.607Z,99860.28
2022-10-03T15:09:40.194Z,99850.41
2022-10-03T15:14:36.271Z,99843.22
2022-10-03T15:19:44.101Z,99844.53
2022-10-03T15:24:36.113Z,99833.28
2022-10-03T15:29:29.396Z,99836.53
2022-10-03T15:34:30.566Z,99825.06
2022-10-03T15:39:43.984Z,99820.56
2022-10-03T15:44:50.342Z,99816.31
2022-10-03T15:49:54.754Z,99803.34
2022-10-03T15:55:11.047Z,99797.81
2022-10-03T16:00:06.917Z,99788.19
2022-10-03T16:04:58.874Z,99785.47
2022-10-03T16:10:01.101Z,99781.31
2022-10-03T16:15:17.127Z,99777.75
2022-10-03T16:20:15.359Z,99775.03
2022-10-03T16:25:25.687Z,99771.97
2022-10-03T16:30:41.621Z,99766.75
2022-10-03T16:35:37.748Z,99765.28
2022-10-03T16:40:30.204Z,99767.63
2022-10-03T16:45:27.023Z,99760.69
2022-10-03T16:50:25.910Z,99764.97
2022-10-03T16:55:28.561Z,99758.25
2022-10-03T17:00:25.670Z,99758.13
2022-10-03T17:05:19.125Z,99750.88
2022-10-03T17:10:21.817Z,99734.56
2022-10-03T17:15:22.381Z,99733.03
2022-10-03T17:20:39.146Z,99729.63
2022-10-03T17:25:38.079Z,99732.81
2022-10-03T17:30:44.127Z,99716.22
2022-10-03T17:35:35.761Z,99717.16
2022-10-03T17:41:08.311Z,99704.75
2022-10-03T17:46:12.560Z,99688.44
2022-10-03T17:51:35.141Z,99688.03
2022-10-03T17:56:32.835Z,99675.53
2022-10-03T18:01:35.943Z,99687.19
2022-10-03T18:06:34.467Z,99681.66
2022-10-03T18:11:29.146Z,99685.63
2022-10-03T18:16:33.426Z,99687.69
2022-10-03T18:21:35.993Z,99677.75
2022-10-03T18:26:33.616Z,99684.44
2022-10-03T18:31:27.315Z,99669.91
2022-10-03T18:36:26.195Z,99667.66
2022-10-03T18:41:19.277Z,99666.50
2022-10-03T18:46:19.627Z,99666.97
2022-10-03T18:51:17.434Z,99689.28
2022-10-03T18:56:27.406Z,99689.19
2022-10-03T19:01:38.207Z,99688.00
2022-10-03T19:06:36.440Z,99685.44
2022-10-03T19:11:43.408Z,99687.22
2022-10-03T19:16:53.644Z,99674.09
2022-10-03T19:21:47.896Z,99652.97
2022-10-03T19:26:49.407Z,99647.78
2022-10-03T19:31:47.069Z,99638.91
2022-10-03T19:36:41.039Z,99644.75
2022-10-03T19:41:43.671Z,99639.44
2022-10-03T19:46:50.661Z,99655.94
2022-10-03T19:51:42.434Z,99650.97
2022-10-03T19:56:35.993Z,99644.59
2022-10-03T20:01:27.855Z,99637.13
2022-10-03T20:06:23.750Z,99619.59
2022-10-03T20:11:36.816Z,99624.94
2022-10-03T20:16:35.863Z,99607.06
2022-10-03T20:21:30.141Z,99609.44
2022-10-03T20:26:24.555Z,99626.25
2022-10-03T20:31:25.412Z,99603.88
2022-10-03T20:36:28.965Z,99588.03
2022-10-03T20:41:35.730Z,99588.50
2022-10-03T20:46:35.953Z,99584.59
2022-10-03T20:51:54.811Z,99575.25
2022-10-03T20:56:58.557Z,99587.44
2022-10-03T21:02:00.316Z,99573.00
2022-10-03T21:07:04.158Z,99572.31
2022-10-03T21:11:57.261Z,99581.50
2022-10-03T21:16:52.076Z,99557.47
2022-10-03T21:21:52.721Z,99554.16
2022-10-03T21:26:48.265Z,99557.94
2022-10-03T21:31:55.023Z,99560.09
2022-10-03T21:36:46.720Z,99549.91
2022-10-03T21:42:05.615Z,99542.22
2022-10-03T21:47:32.683Z,99526.34
2022-10-03T21:52:42.454Z,99527.31
2022-10-03T21:57:52.326Z,99516.66
2022-10-03T22:02:52.744Z,99516.91
2022-10-03T22:07:45.739Z,99524.25
2022-10-03T22:12:44.089Z,99528.03
2022-10-03T22:17:52.972Z,99530.03
2022-10-03T22:23:10.682Z,99514.31
2022-10-03T22:28:20.727Z,99525.44
2022-10-03T22:33:38.240Z,99509.09
2022-10-03T22:38:33.793Z,99499.03
2022-10-03T22:43:27.266Z,99498.47
2022-10-03T22:48:28.360Z,99496.56
2022-10-03T22:53:24.350Z,99479.25
2022-10-03T22:58:17.005Z,99475.34
2022-10-03T23:03:18.522Z,99480.81
2022-10-03T23:08:10.129Z,99477.13
2022-10-03T23:13:05.409Z,99469.56
2022-10-03T23:18:09.756Z,99463.38
2022-10-03T23:23:11.301Z,99447.06
2022-10-03T23:28:29.905Z,99435.56
2022-10-03T23:33:41.840Z,99428.72
2022-10-03T23:38:33.559Z,99425.06
2022-10-03T23:43:33.237Z,99403.28
2022-10-03T23:48:27.530Z,99398.94
2022-10-03T23:53:41.257Z,99389.13
2022-10-03T23:58:36.738Z,99393.19
